Time;durP1;ratioP1;P1;durP2;ratioP2;P2;SDS_P1;SDS_P2;PMS_P1;PMS_P2;Temp;Humidity;BMP_temperature;BMP_pressure;BME280_temperature;BME280_humidity;BME280_pressure;Samples;Min_cycle;Max_cycle;Signal;HPM_P1;HPM_P2
2021/04/05 00:01:26;;;;;;;31.00;16.33;;;5.40;85.70;;;;;;5021261;28;20313;-75
2021/04/05 00:03:51;;;;;;;25.55;12.00;;;5.40;85.90;;;;;;5038348;28;20048;-74
2021/04/05 00:06:18;;;;;;;29.88;15.57;;;5.50;85.70;;;;;;5001755;28;24574;-75
2021/04/05 00:08:44;;;;;;;17.58;8.45;;;5.40;86.20;;;;;;5040223;28;20025;-75
2021/04/05 00:11:10;;;;;;;15.98;8.50;;;5.50;86.10;;;;;;5038659;28;20038;-74
2021/04/05 00:13:38;;;;;;;27.85;12.93;;;5.50;86.30;;;;;;5013866;28;20074;-75
2021/04/05 00:16:04;;;;;;;20.70;8.57;;;5.40;86.40;;;;;;5019243;28;20036;-74
2021/04/05 00:18:30;;;;;;;15.00;8.23;;;5.50;86.80;;;;;;5006685;28;20320;-75
2021/04/05 00:21:01;;;;;;;26.98;9.57;;;5.50;86.70;;;;;;5029167;28;20035;-74
2021/04/05 00:23:27;;;;;;;14.52;7.00;;;5.50;86.60;;;;;;5022264;28;20033;-75
2021/04/05 00:25:52;;;;;;;27.85;14.63;;;5.50;86.70;;;;;;5034960;28;20044;-75
2021/04/05 00:28:18;;;;;;;27.13;14.18;;;5.50;86.80;;;;;;5004810;28;20045;-75
2021/04/05 00:30:43;;;;;;;25.95;13.65;;;5.50;86.50;;;;;;5015422;28;20055;-75
2021/04/05 00:33:09;;;;;;;20.90;10.50;;;5.50;86.10;;;;;;5016286;28;20042;-75
2021/04/05 00:35:36;;;;;;;22.27;11.80;;;5.50;86.70;;;;;;5028113;28;20552;-75
2021/04/05 00:38:04;;;;;;;30.25;13.55;;;5.50;86.70;;;;;;5015871;28;20108;-75
2021/04/05 00:40:47;;;;;;;17.27;8.98;;;5.50;86.80;;;;;;5025051;28;20034;-75
2021/04/05 00:43:13;;;;;;;32.45;16.80;;;5.50;86.70;;;;;;5042432;28;20033;-74
2021/04/05 00:45:39;;;;;;;18.25;8.98;;;5.50;86.50;;;;;;5024582;28;20511;-75
2021/04/05 00:48:04;;;;;;;25.30;12.15;;;5.50;86.50;;;;;;5038381;28;20116;-75
2021/04/05 00:50:33;;;;;;;15.23;7.43;;;5.50;87.00;;;;;;5038702;28;20423;-75
2021/04/05 00:52:59;;;;;;;15.57;8.45;;;5.50;86.90;;;;;;5039331;28;20500;-75
2021/04/05 00:55:25;;;;;;;21.05;9.40;;;5.50;87.00;;;;;;5037245;28;20029;-75
2021/04/05 00:57:51;;;;;;;24.20;9.90;;;5.50;86.80;;;;;;5028862;28;20025;-74
2021/04/05 01:00:23;;;;;;;24.95;11.95;;;5.50;87.10;;;;;;5034994;28;20405;-75
2021/04/05 01:02:48;;;;;;;26.55;12.02;;;5.50;87.00;;;;;;5013303;28;20467;-75
2021/04/05 01:05:14;;;;;;;7.88;5.32;;;5.40;87.10;;;;;;5012644;28;20120;-75
2021/04/05 01:07:40;;;;;;;23.73;11.18;;;5.50;86.60;;;;;;5040489;28;20049;-75
2021/04/05 01:10:07;;;;;;;16.45;8.23;;;5.50;87.00;;;;;;5018186;28;20500;-74
2021/04/05 01:12:33;;;;;;;23.08;9.68;;;5.40;87.10;;;;;;5023731;28;20424;-74
2021/04/05 01:14:58;;;;;;;23.65;11.68;;;5.50;87.40;;;;;;5005144;28;20040;-74
2021/04/05 01:17:24;;;;;;;20.65;10.25;;;5.40;87.10;;;;;;5011256;28;20119;-73
2021/04/05 01:19:49;;;;;;;24.48;11.98;;;5.40;87.40;;;;;;5037242;28;20041;-74
2021/04/05 01:22:15;;;;;;;25.15;12.85;;;5.50;87.70;;;;;;5011657;28;20499;-73
2021/04/05 01:24:40;;;;;;;19.45;10.45;;;5.40;87.70;;;;;;5033258;28;20032;-74
2021/04/05 01:27:07;;;;;;;17.38;9.20;;;5.50;87.80;;;;;;4999320;28;20051;-74
2021/04/05 01:29:32;;;;;;;30.92;17.23;;;5.40;87.90;;;;;;5027193;28;20151;-74
2021/04/05 01:31:58;;;;;;;24.85;13.63;;;5.30;86.90;;;;;;5025650;28;20123;-74
2021/04/05 01:34:23;;;;;;;25.58;13.50;;;5.40;87.80;;;;;;5015540;28;20481;-74
2021/04/05 01:36:49;;;;;;;25.27;11.98;;;5.40;87.50;;;;;;5025992;28;20032;-74
2021/04/05 01:39:14;;;;;;;21.73;9.45;;;5.40;87.60;;;;;;5029874;28;20540;-74
2021/04/05 01:41:40;;;;;;;17.05;8.77;;;5.40;87.80;;;;;;5027737;28;20028;-74
2021/04/05 01:44:06;;;;;;;17.52;8.15;;;5.40;88.00;;;;;;5001657;28;20025;-74
2021/04/05 01:46:31;;;;;;;18.83;9.15;;;5.40;88.50;;;;;;5005626;28;20064;-75
2021/04/05 01:49:00;;;;;;;24.80;11.32;;;5.40;88.40;;;;;;5039502;28;20448;-74
2021/04/05 01:51:25;;;;;;;30.38;9.35;;;5.30;88.10;;;;;;5002741;28;20033;-73
2021/04/05 01:53:51;;;;;;;26.40;12.48;;;5.40;88.90;;;;;;5019155;28;20086;-73
2021/04/05 01:56:18;;;;;;;27.52;12.73;;;5.30;88.40;;;;;;5002040;28;20428;-74
2021/04/05 01:58:46;;;;;;;26.70;14.10;;;5.40;89.00;;;;;;5012842;28;20029;-73
2021/04/05 02:01:13;;;;;;;26.67;11.30;;;5.30;89.10;;;;;;5004434;28;20061;-74
2021/04/05 02:03:39;;;;;;;14.50;8.07;;;5.40;89.10;;;;;;5021389;28;20033;-74
2021/04/05 02:06:08;;;;;;;17.75;7.40;;;5.40;89.20;;;;;;5009447;28;20157;-74
2021/04/05 02:08:34;;;;;;;18.48;9.25;;;5.30;89.30;;;;;;5036966;28;20033;-74
2021/04/05 02:11:05;;;;;;;13.93;7.43;;;5.30;89.30;;;;;;5006441;28;20045;-73
2021/04/05 02:13:30;;;;;;;20.02;8.85;;;5.30;89.10;;;;;;5033917;28;20410;-74
2021/04/05 02:15:56;;;;;;;16.80;8.27;;;5.40;88.90;;;;;;5034609;28;20033;-74
2021/04/05 02:18:22;;;;;;;16.30;7.93;;;5.40;88.90;;;;;;5016186;28;20033;-75
2021/04/05 02:20:48;;;;;;;28.02;10.40;;;5.40;88.80;;;;;;5049359;28;20544;-74
2021/04/05 02:23:13;;;;;;;23.92;6.97;;;5.40;89.40;;;;;;5050399;28;20029;-73
2021/04/05 02:26:06;;;;;;;30.73;12.98;;;5.40;89.50;;;;;;5017398;28;20040;-74
2021/04/05 02:28:25;;;;;;;17.97;6.87;;;5.40;89.40;;;;;;5047886;28;20037;-74
2021/04/05 02:30:50;;;;;;;28.38;12.45;;;5.40;89.40;;;;;;5016764;28;20329;-74
2021/04/05 02:33:15;;;;;;;23.55;8.88;;;5.40;89.00;;;;;;5022035;28;20392;-73
2021/04/05 02:35:41;;;;;;;30.27;12.55;;;5.40;89.30;;;;;;5008305;28;20025;-74
2021/04/05 02:38:07;;;;;;;21.52;9.07;;;5.30;89.30;;;;;;5005790;28;20041;-73
2021/04/05 02:40:32;;;;;;;28.50;12.25;;;5.40;89.30;;;;;;5017330;28;20041;-74
2021/04/05 02:42:58;;;;;;;19.42;8.57;;;5.40;89.50;;;;;;5033706;28;20029;-75
2021/04/05 02:45:25;;;;;;;23.38;12.45;;;5.40;89.60;;;;;;5042088;28;20404;-74
2021/04/05 02:47:58;;;;;;;24.58;10.57;;;5.40;89.40;;;;;;5019970;28;20117;-73
2021/04/05 02:50:26;;;;;;;16.80;6.63;;;5.40;89.30;;;;;;5021678;28;20044;-73
2021/04/05 02:52:53;;;;;;;25.67;11.88;;;5.40;89.30;;;;;;5011210;28;20392;-75
2021/04/05 02:55:19;;;;;;;45.08;12.48;;;5.40;89.00;;;;;;5018201;28;20486;-75
2021/04/05 02:57:45;;;;;;;29.50;13.10;;;5.50;89.30;;;;;;5028432;28;20021;-75
2021/04/05 03:00:15;;;;;;;18.77;9.77;;;5.50;89.20;;;;;;5017692;28;20045;-75
2021/04/05 03:02:41;;;;;;;30.63;12.45;;;5.50;89.30;;;;;;5012041;28;20022;-74
2021/04/05 03:05:07;;;;;;;36.50;14.95;;;5.40;89.20;;;;;;5033923;28;20032;-74
2021/04/05 03:07:34;;;;;;;24.08;9.63;;;5.40;89.40;;;;;;5022595;28;20033;-74
2021/04/05 03:10:00;;;;;;;37.55;18.60;;;5.40;89.10;;;;;;5024457;28;20033;-74
2021/04/05 03:12:29;;;;;;;28.98;15.40;;;5.50;89.40;;;;;;5013751;28;20048;-74
2021/04/05 03:14:55;;;;;;;29.73;13.48;;;5.50;89.50;;;;;;5015181;28;20071;-74
2021/04/05 03:17:21;;;;;;;42.15;20.02;;;5.50;89.00;;;;;;5017577;28;20038;-74
2021/04/05 03:19:46;;;;;;;37.58;17.40;;;5.50;89.40;;;;;;5015839;28;20041;-74
2021/04/05 03:22:12;;;;;;;21.27;9.63;;;5.50;89.50;;;;;;5016487;28;20041;-74
2021/04/05 03:24:37;;;;;;;19.08;9.20;;;5.60;88.70;;;;;;5028989;28;20120;-74
2021/04/05 03:27:03;;;;;;;26.50;12.75;;;5.60;89.10;;;;;;5026170;28;20025;-74
2021/04/05 03:29:30;;;;;;;20.63;10.18;;;5.60;89.20;;;;;;5033100;28;20120;-74
2021/04/05 03:31:56;;;;;;;33.28;15.85;;;5.70;88.90;;;;;;5042272;28;20025;-74
2021/04/05 03:34:23;;;;;;;35.15;16.63;;;5.70;89.00;;;;;;5004244;28;20034;-74
2021/04/05 03:36:53;;;;;;;28.45;11.90;;;5.70;89.10;;;;;;5034517;28;20037;-74
2021/04/05 03:39:19;;;;;;;32.72;13.40;;;5.70;89.10;;;;;;5015759;28;20044;-73
2021/04/05 03:41:59;;;;;;;25.15;10.77;;;5.70;89.00;;;;;;5018103;28;20028;-74
2021/04/05 03:44:51;;;;;;;30.73;11.48;;;5.80;89.10;;;;;;5040278;28;20036;-73
2021/04/05 03:47:21;;;;;;;25.23;12.25;;;5.80;89.30;;;;;;5033268;28;20087;-74
2021/04/05 03:49:54;;;;;;;40.75;16.83;;;5.80;88.80;;;;;;5040012;28;20079;-74
2021/04/05 03:53:09;;;;;;;39.53;16.20;;;5.80;88.90;;;;;;5016423;28;20163;-74
2021/04/05 03:55:35;;;;;;;39.08;17.48;;;5.80;89.20;;;;;;5026550;28;20132;-73
2021/04/05 03:58:01;;;;;;;15.95;8.43;;;5.90;89.20;;;;;;5018877;28;20652;-73
2021/04/05 04:00:28;;;;;;;28.90;12.18;;;5.90;89.10;;;;;;5044189;28;20219;-73
2021/04/05 04:02:54;;;;;;;26.75;12.57;;;5.90;89.40;;;;;;5004386;28;20056;-73
2021/04/05 04:05:29;;;;;;;21.92;12.20;;;5.90;88.70;;;;;;5029821;28;20049;-74
2021/04/05 04:10:25;;;;;;;34.00;13.90;;;6.00;89.10;;;;;;5032045;28;20033;-74
2021/04/05 04:12:51;;;;;;;20.90;9.27;;;6.00;88.70;;;;;;5014444;28;20033;-73
2021/04/05 04:15:16;;;;;;;22.58;10.85;;;6.00;89.20;;;;;;5000441;28;20717;-74
2021/04/05 04:17:45;;;;;;;33.33;12.35;;;6.00;89.00;;;;;;5025472;28;20063;-73
2021/04/05 04:20:13;;;;;;;32.13;13.18;;;6.00;89.20;;;;;;5015443;28;20548;-73
2021/04/05 04:22:38;;;;;;;27.27;11.45;;;6.00;89.40;;;;;;5042293;28;20029;-74
2021/04/05 04:25:05;;;;;;;12.82;5.50;;;6.00;89.50;;;;;;5000627;28;20026;-74
2021/04/05 04:27:31;;;;;;;18.02;7.43;;;6.10;88.90;;;;;;5040758;28;20484;-74
2021/04/05 04:29:57;;;;;;;26.88;13.15;;;6.10;89.40;;;;;;5047763;28;20038;-74
2021/04/05 04:32:23;;;;;;;16.50;9.82;;;6.00;89.20;;;;;;5037667;28;20029;-74
2021/04/05 04:34:48;;;;;;;23.98;11.25;;;6.10;89.60;;;;;;5006506;28;20055;-73
2021/04/05 04:37:14;;;;;;;21.92;8.63;;;6.10;89.30;;;;;;5013910;28;20033;-74
2021/04/05 04:39:39;;;;;;;24.25;8.60;;;6.10;90.00;;;;;;5015181;28;20059;-73
2021/04/05 04:42:06;;;;;;;38.08;16.35;;;6.10;89.80;;;;;;4996096;28;20037;-74
2021/04/05 04:44:31;;;;;;;25.45;12.10;;;6.10;89.70;;;;;;5024476;28;20041;-74
2021/04/05 04:46:57;;;;;;;14.90;6.50;;;6.10;89.80;;;;;;4996987;28;20038;-73
2021/04/05 04:49:22;;;;;;;35.90;14.00;;;6.10;89.60;;;;;;5046362;28;20072;-75
2021/04/05 04:51:48;;;;;;;22.42;11.25;;;6.10;89.60;;;;;;5006410;28;20025;-73
2021/04/05 04:54:13;;;;;;;19.83;9.63;;;6.10;90.00;;;;;;5037313;28;20034;-74
2021/04/05 04:56:39;;;;;;;22.08;9.18;;;6.10;89.80;;;;;;5008587;28;20040;-74
2021/04/05 04:59:06;;;;;;;30.17;13.75;;;6.10;89.60;;;;;;5036421;28;20033;-74
2021/04/05 05:01:33;;;;;;;29.73;11.45;;;6.10;89.90;;;;;;5021893;28;20092;-74
2021/04/05 05:04:11;;;;;;;26.60;11.93;;;6.20;89.80;;;;;;5026328;28;20090;-74
2021/04/05 05:06:37;;;;;;;21.90;9.88;;;6.20;89.60;;;;;;5017934;28;20618;-73
2021/04/05 05:09:03;;;;;;;24.67;10.77;;;6.20;89.50;;;;;;5011180;28;20048;-74
2021/04/05 05:11:28;;;;;;;27.23;12.93;;;6.20;89.60;;;;;;5043588;28;20056;-73
2021/04/05 05:13:56;;;;;;;37.28;12.15;;;6.20;90.20;;;;;;5043109;28;20108;-73
2021/04/05 05:16:21;;;;;;;22.30;9.77;;;6.20;90.10;;;;;;5002187;28;20040;-74
2021/04/05 05:18:47;;;;;;;24.98;13.23;;;6.20;90.00;;;;;;5027405;28;20037;-73
2021/04/05 05:21:43;;;;;;;40.22;17.45;;;6.20;90.10;;;;;;5016438;28;20029;-74
2021/04/05 05:24:12;;;;;;;22.27;10.98;;;6.20;90.10;;;;;;5039046;28;20379;-74
2021/04/05 05:26:37;;;;;;;29.90;13.15;;;6.20;90.00;;;;;;5028470;28;20496;-74
2021/04/05 05:29:07;;;;;;;33.15;14.55;;;6.20;90.30;;;;;;5014261;28;20355;-74
2021/04/05 05:31:42;;;;;;;19.23;10.95;;;6.30;90.30;;;;;;5024572;28;20044;-74
2021/04/05 05:34:09;;;;;;;41.92;17.85;;;6.30;90.50;;;;;;5039825;28;20503;-74
2021/04/05 05:36:38;;;;;;;18.67;11.65;;;6.30;90.50;;;;;;5028031;28;20028;-73
2021/04/05 05:39:04;;;;;;;27.38;12.93;;;6.30;90.30;;;;;;5000286;28;20071;-75
2021/04/05 05:41:54;;;;;;;35.83;17.08;;;6.30;90.30;;;;;;5026587;28;20041;-74
2021/04/05 05:44:43;;;;;;;28.23;11.60;;;6.30;90.50;;;;;;5029064;28;20087;-74
2021/04/05 05:47:13;;;;;;;22.20;10.30;;;6.30;90.50;;;;;;5029814;28;20044;-74
2021/04/05 05:49:54;;;;;;;29.73;14.50;;;6.30;90.50;;;;;;5021155;28;20036;-73
2021/04/05 05:52:49;;;;;;;13.60;8.43;;;6.30;90.40;;;;;;5028907;28;20033;-74
2021/04/05 05:55:35;;;;;;;28.42;11.02;;;6.30;90.50;;;;;;5020043;28;20052;-74
2021/04/05 05:58:13;;;;;;;25.55;12.98;;;6.30;90.30;;;;;;5030642;28;20024;-74
2021/04/05 06:00:42;;;;;;;22.88;10.30;;;6.30;90.60;;;;;;5043701;28;20033;-74
2021/04/05 06:03:43;;;;;;;17.70;8.50;;;6.30;90.50;;;;;;5013611;28;20087;-75
2021/04/05 06:06:23;;;;;;;25.98;12.88;;;6.40;90.50;;;;;;5040808;28;20032;-74
2021/04/05 06:09:12;;;;;;;36.08;17.10;;;6.40;90.60;;;;;;5038201;28;20040;-74
2021/04/05 06:11:56;;;;;;;20.17;10.32;;;6.30;90.60;;;;;;5016904;28;20024;-73
2021/04/05 06:14:30;;;;;;;31.60;14.80;;;6.30;90.70;;;;;;5032252;28;20036;-74
2021/04/05 06:17:18;;;;;;;32.30;13.48;;;6.30;91.00;;;;;;5016859;28;20044;-73
2021/04/05 06:19:51;;;;;;;24.75;11.95;;;6.40;91.10;;;;;;5032666;28;20056;-73
2021/04/05 06:22:45;;;;;;;25.10;13.00;;;6.30;91.00;;;;;;5002249;28;20037;-74
2021/04/05 06:25:23;;;;;;;31.25;14.20;;;6.30;90.90;;;;;;5030848;28;20045;-74
2021/04/05 06:27:54;;;;;;;22.90;12.18;;;6.30;91.20;;;;;;5037733;28;20033;-74
2021/04/05 06:30:42;;;;;;;18.98;9.38;;;6.30;91.20;;;;;;5037936;28;20381;-73
2021/04/05 06:33:36;;;;;;;19.92;11.18;;;6.30;91.40;;;;;;5032542;28;20044;-74
2021/04/05 06:36:23;;;;;;;27.15;12.40;;;6.30;91.20;;;;;;5013494;28;20389;-74
2021/04/05 06:38:54;;;;;;;41.05;18.52;;;6.30;91.10;;;;;;5027848;28;20029;-74
2021/04/05 06:41:33;;;;;;;34.75;17.13;;;6.30;91.40;;;;;;5014664;28;20044;-73
2021/04/05 06:44:23;;;;;;;38.50;17.52;;;6.30;91.40;;;;;;5030067;28;20411;-74
2021/04/05 06:47:21;;;;;;;14.60;9.23;;;6.30;91.40;;;;;;5036915;28;20037;-73
2021/04/05 06:50:13;;;;;;;23.90;11.25;;;6.30;91.70;;;;;;4995286;28;20098;-73
2021/04/05 06:53:23;;;;;;;33.22;12.98;;;6.30;91.80;;;;;;5014012;28;20037;-74
2021/04/05 06:55:55;;;;;;;27.15;12.75;;;6.30;91.90;;;;;;5045899;28;20480;-74
2021/04/05 06:58:23;;;;;;;18.55;10.00;;;6.30;91.90;;;;;;5017697;28;20033;-73
2021/04/05 07:01:10;;;;;;;24.33;12.50;;;6.30;92.00;;;;;;5046580;28;20033;-74
2021/04/05 07:03:55;;;;;;;29.67;15.75;;;6.30;91.90;;;;;;5042921;28;20029;-74
2021/04/05 07:06:27;;;;;;;25.20;12.25;;;6.30;92.00;;;;;;5038139;28;20022;-75
2021/04/05 07:09:14;;;;;;;23.42;12.45;;;6.30;92.20;;;;;;5034528;28;20029;-75
2021/04/05 07:11:52;;;;;;;27.85;12.15;;;6.30;92.20;;;;;;5027937;28;20071;-74
2021/04/05 07:14:26;;;;;;;32.97;16.48;;;6.30;92.50;;;;;;5040885;28;20045;-76
2021/04/05 07:17:14;;;;;;;44.75;21.77;;;6.20;92.50;;;;;;5039701;28;20435;-75
2021/04/05 07:20:01;;;;;;;20.98;12.35;;;6.30;92.40;;;;;;5012268;28;20444;-74
2021/04/05 07:22:52;;;;;;;29.02;12.50;;;6.30;92.40;;;;;;5025240;28;20025;-74
2021/04/05 07:25:48;;;;;;;25.52;13.65;;;6.30;92.70;;;;;;5015441;28;20033;-74
2021/04/05 07:28:30;;;;;;;13.10;7.63;;;6.30;92.30;;;;;;5032064;28;20048;-76
2021/04/05 07:31:07;;;;;;;30.00;13.25;;;6.30;92.60;;;;;;5025762;28;20767;-75
2021/04/05 07:33:37;;;;;;;33.42;18.35;;;6.30;92.80;;;;;;5046580;28;20047;-74
2021/04/05 07:36:40;;;;;;;27.20;14.82;;;6.30;92.70;;;;;;5036400;28;20535;-75
2021/04/05 07:39:24;;;;;;;42.45;19.02;;;6.30;92.60;;;;;;5045164;28;20060;-75
2021/04/05 07:42:11;;;;;;;50.78;25.80;;;6.20;93.10;;;;;;5040324;28;20040;-74
2021/04/05 07:44:39;;;;;;;;;;;6.00;93.30;;;;;;5043317;28;20267;-75
2021/04/05 07:47:12;;;;;;;22.35;11.40;;;6.10;93.00;;;;;;5029391;28;19913;-74
2021/04/05 07:49:46;;;;;;;28.80;10.90;;;6.00;93.00;;;;;;5035962;28;20045;-74
2021/04/05 07:52:38;;;;;;;22.48;9.88;;;6.00;92.70;;;;;;5018995;28;20036;-75
2021/04/05 07:55:04;;;;;;;18.33;9.02;;;5.90;93.00;;;;;;5029838;28;20049;-74
2021/04/05 07:57:54;;;;;;;14.38;7.47;;;5.90;93.00;;;;;;5031269;28;20038;-75
2021/04/05 08:00:29;;;;;;;16.63;8.50;;;5.70;92.90;;;;;;5031845;28;20045;-75
2021/04/05 08:03:16;;;;;;;22.33;12.30;;;5.70;93.30;;;;;;5029901;28;20044;-75
2021/04/05 08:05:44;;;;;;;12.32;9.23;;;5.50;94.30;;;;;;5049506;28;20037;-75
2021/04/05 08:08:40;;;;;;;14.65;9.00;;;5.50;94.40;;;;;;5043425;28;20040;-75
2021/04/05 08:11:39;;;;;;;7.50;3.63;;;5.40;94.40;;;;;;5029881;28;20068;-75
2021/04/05 08:14:35;;;;;;;11.30;3.95;;;5.50;94.00;;;;;;5032718;28;20139;-75
2021/04/05 08:17:30;;;;;;;4.00;2.30;;;5.50;93.60;;;;;;5040633;28;20032;-75
2021/04/05 08:20:11;;;;;;;4.28;2.20;;;5.50;93.80;;;;;;5029802;28;20343;-75
2021/04/05 08:22:48;;;;;;;3.38;1.70;;;5.50;93.80;;;;;;5007723;28;20028;-76
2021/04/05 08:25:33;;;;;;;7.35;2.70;;;5.60;93.30;;;;;;5017356;28;20034;-75
2021/04/05 08:28:46;;;;;;;3.15;1.20;;;5.50;93.30;;;;;;5037977;28;20119;-74
2021/04/05 08:31:36;;;;;;;2.22;1.30;;;5.50;93.60;;;;;;5015365;28;20037;-75
2021/04/05 08:34:28;;;;;;;2.45;1.55;;;5.50;93.20;;;;;;5031982;28;20044;-75
2021/04/05 08:37:19;;;;;;;2.00;1.30;;;5.50;93.60;;;;;;5030260;28;20040;-75
2021/04/05 08:40:03;;;;;;;4.15;1.98;;;5.40;93.60;;;;;;5045085;28;20031;-76
2021/04/05 08:42:47;;;;;;;2.50;1.20;;;5.50;93.30;;;;;;5020593;28;20037;-75
2021/04/05 08:45:19;;;;;;;8.88;1.48;;;5.50;93.10;;;;;;5033558;28;20496;-75
2021/04/05 08:47:51;;;;;;;3.35;1.23;;;5.60;93.20;;;;;;5040799;28;20485;-75
2021/04/05 08:50:17;;;;;;;3.63;1.10;;;5.60;92.60;;;;;;5015521;28;20052;-75
2021/04/05 08:52:44;;;;;;;4.30;1.67;;;5.60;93.10;;;;;;5025753;28;20036;-75
2021/04/05 08:55:22;;;;;;;1.88;1.40;;;5.50;92.90;;;;;;5024041;28;20043;-75
2021/04/05 08:58:09;;;;;;;10.23;2.58;;;5.60;93.30;;;;;;5009096;28;20127;-76
2021/04/05 09:00:37;;;;;;;3.55;1.88;;;5.40;94.00;;;;;;5040245;28;20037;-76
2021/04/05 09:03:09;;;;;;;4.15;1.10;;;4.90;94.50;;;;;;5003753;28;20025;-75
2021/04/05 09:05:42;;;;;;;4.93;1.40;;;4.90;94.50;;;;;;5034112;28;20037;-75
2021/04/05 09:08:09;;;;;;;3.95;1.75;;;4.80;94.20;;;;;;5002742;28;20128;-75
2021/04/05 09:10:55;;;;;;;8.38;1.63;;;4.60;94.10;;;;;;5043222;28;20116;-76
2021/04/05 09:13:47;;;;;;;8.87;1.87;;;4.60;94.30;;;;;;5043570;28;20041;-75
2021/04/05 09:16:35;;;;;;;11.73;1.98;;;4.50;94.50;;;;;;5013236;28;20044;-75
2021/04/05 09:19:20;;;;;;;11.68;3.13;;;4.40;94.50;;;;;;5039375;28;20033;-75
2021/04/05 09:22:13;;;;;;;10.25;2.17;;;4.30;94.40;;;;;;5060467;28;20091;-76
2021/04/05 09:25:06;;;;;;;18.88;3.63;;;4.10;94.20;;;;;;5034170;28;20029;-75
2021/04/05 09:27:54;;;;;;;15.45;2.90;;;4.10;94.30;;;;;;5023848;28;20141;-75
2021/04/05 09:30:42;;;;;;;6.90;1.25;;;4.00;94.60;;;;;;5014724;28;20060;-75
2021/04/05 09:33:27;;;;;;;11.30;2.35;;;4.10;94.40;;;;;;5035128;28;20116;-75
2021/04/05 09:36:15;;;;;;;14.27;1.92;;;4.10;94.30;;;;;;5046913;28;20036;-74
2021/04/05 09:39:15;;;;;;;8.48;1.58;;;4.10;94.40;;;;;;5036511;28;20093;-75
2021/04/05 09:41:46;;;;;;;14.45;3.10;;;4.30;94.00;;;;;;5014862;28;20029;-74
2021/04/05 09:44:45;;;;;;;8.70;1.25;;;4.40;94.10;;;;;;5041892;28;20034;-74
2021/04/05 09:47:40;;;;;;;13.48;2.35;;;4.30;93.90;;;;;;5043213;28;20547;-74
2021/04/05 09:50:20;;;;;;;13.38;1.88;;;4.40;93.60;;;;;;5025868;28;20477;-74
2021/04/05 09:53:08;;;;;;;14.02;2.47;;;4.50;93.70;;;;;;5035724;28;20027;-74
2021/04/05 09:55:37;;;;;;;13.05;1.70;;;4.50;93.80;;;;;;5027352;28;20199;-75
2021/04/05 09:58:05;;;;;;;12.57;1.67;;;4.70;93.30;;;;;;5017632;28;20057;-74
2021/04/05 10:00:30;;;;;;;11.68;2.60;;;4.70;93.60;;;;;;5041571;28;20029;-74
2021/04/05 10:03:04;;;;;;;10.98;2.10;;;4.80;93.70;;;;;;5039838;28;20499;-75
2021/04/05 10:05:31;;;;;;;9.63;1.60;;;4.90;93.80;;;;;;5041205;28;20049;-74
2021/04/05 10:07:57;;;;;;;11.10;1.95;;;5.00;93.80;;;;;;5023433;28;20030;-74
2021/04/05 10:10:24;;;;;;;13.52;1.90;;;5.00;93.60;;;;;;5025723;28;20038;-75
2021/04/05 10:12:49;;;;;;;13.60;2.22;;;5.20;93.80;;;;;;5012907;28;20029;-75
2021/04/05 10:15:17;;;;;;;14.85;2.20;;;5.20;94.00;;;;;;5019489;28;20044;-76
2021/04/05 10:18:01;;;;;;;15.20;2.38;;;5.40;94.10;;;;;;5040269;28;20037;-74
2021/04/05 10:20:29;;;;;;;18.17;2.50;;;5.40;94.10;;;;;;5022426;28;20029;-76
2021/04/05 10:22:55;;;;;;;9.80;1.40;;;5.50;94.20;;;;;;5014448;28;20102;-74
2021/04/05 10:25:22;;;;;;;12.50;2.08;;;5.50;94.30;;;;;;5025108;28;20037;-74
2021/04/05 10:27:55;;;;;;;11.25;1.90;;;5.50;93.80;;;;;;5024621;28;20030;-76
2021/04/05 10:30:21;;;;;;;5.68;1.45;;;5.30;93.10;;;;;;5004695;28;20497;-76
2021/04/05 10:32:46;;;;;;;5.43;1.10;;;4.60;93.60;;;;;;5008188;28;20059;-75
2021/04/05 10:35:13;;;;;;;3.08;0.68;;;4.40;93.50;;;;;;5020583;28;20493;-76
2021/04/05 10:37:41;;;;;;;2.88;0.70;;;4.30;93.10;;;;;;5014199;28;20028;-75
2021/04/05 10:40:11;;;;;;;3.25;0.50;;;4.20;93.10;;;;;;5007202;28;20045;-77
2021/04/05 10:42:38;;;;;;;6.00;0.80;;;4.30;93.10;;;;;;5005379;28;20033;-76
2021/04/05 10:45:06;;;;;;;5.07;0.90;;;4.40;93.60;;;;;;5025647;28;20087;-76
2021/04/05 10:47:34;;;;;;;3.13;0.75;;;4.40;93.80;;;;;;5041165;28;20028;-76
2021/04/05 10:50:00;;;;;;;1.67;0.70;;;4.40;94.00;;;;;;5025400;28;20037;-75
2021/04/05 10:52:27;;;;;;;4.82;0.90;;;4.30;94.00;;;;;;5021772;28;20110;-75
2021/04/05 10:54:54;;;;;;;3.58;1.15;;;4.20;94.10;;;;;;5024476;28;20041;-76
2021/04/05 10:57:26;;;;;;;3.55;0.98;;;4.00;94.40;;;;;;5041484;28;20382;-76
2021/04/05 10:59:53;;;;;;;2.33;0.85;;;3.80;94.50;;;;;;5054058;28;20029;-76
2021/04/05 11:02:22;;;;;;;4.80;1.48;;;3.70;94.60;;;;;;5042821;28;20068;-75
2021/04/05 11:04:59;;;;;;;1.50;1.10;;;3.50;94.50;;;;;;5024107;28;20048;-76
2021/04/05 11:07:25;;;;;;;5.75;1.38;;;3.60;94.70;;;;;;5028596;28;20116;-76
2021/04/05 11:09:53;;;;;;;1.58;0.75;;;3.70;94.60;;;;;;5019410;28;20037;-76
2021/04/05 11:12:20;;;;;;;2.33;0.90;;;4.00;94.50;;;;;;5019713;28;20533;-75
2021/04/05 11:14:46;;;;;;;2.55;1.13;;;4.20;94.40;;;;;;5026168;28;20032;-76
2021/04/05 11:17:13;;;;;;;2.20;0.75;;;4.40;94.70;;;;;;4314017;28;10000771;-76
2021/04/05 11:19:48;;;;;;;1.25;0.75;;;4.70;95.10;;;;;;5016081;28;20036;-76
2021/04/05 11:22:23;;;;;;;2.90;0.95;;;4.90;94.70;;;;;;5042388;28;20056;-76
2021/04/05 11:24:58;;;;;;;3.35;0.98;;;5.20;95.00;;;;;;5034477;28;20106;-76
2021/04/05 11:27:26;;;;;;;2.97;0.73;;;5.40;95.30;;;;;;5004632;28;20033;-76
2021/04/05 11:29:52;;;;;;;2.33;1.02;;;5.40;94.00;;;;;;5032375;28;20033;-76
2021/04/05 11:32:17;;;;;;;5.30;1.00;;;5.50;94.70;;;;;;5028219;28;20044;-75
2021/04/05 11:34:44;;;;;;;3.30;0.75;;;5.50;94.60;;;;;;5002675;28;20036;-77
2021/04/05 11:37:14;;;;;;;2.55;0.75;;;5.70;94.90;;;;;;5005900;28;20044;-77
2021/04/05 11:39:41;;;;;;;2.83;0.60;;;5.70;93.00;;;;;;5017497;28;20048;-76
2021/04/05 11:42:07;;;;;;;3.60;0.90;;;5.80;94.20;;;;;;5013991;28;20049;-76
2021/04/05 11:44:45;;;;;;;6.68;1.10;;;5.90;94.40;;;;;;5025154;28;20033;-77
2021/04/05 11:47:10;;;;;;;2.65;0.95;;;5.90;93.80;;;;;;5018922;28;20064;-76
2021/04/05 11:49:36;;;;;;;2.78;0.93;;;6.00;93.10;;;;;;5006808;28;20033;-76
2021/04/05 11:52:03;;;;;;;7.07;0.80;;;6.10;93.40;;;;;;5004927;28;20489;-76
2021/04/05 11:54:35;;;;;;;7.03;1.40;;;6.00;93.10;;;;;;5040612;28;20034;-76
2021/04/05 11:57:03;;;;;;;10.45;1.70;;;5.50;92.30;;;;;;5060143;28;20041;-76
2021/04/05 11:59:29;;;;;;;7.70;1.42;;;4.70;92.80;;;;;;5010078;28;20058;-75
2021/04/05 12:01:59;;;;;;;11.00;2.03;;;4.10;92.90;;;;;;5009122;28;20041;-76
2021/04/05 12:04:38;;;;;;;3.50;1.27;;;3.30;92.70;;;;;;5013771;28;20040;-76
2021/04/05 12:07:13;;;;;;;5.68;1.40;;;2.90;92.80;;;;;;4695035;28;9999619;-76
2021/04/05 12:09:57;;;;;;;3.22;0.98;;;2.90;92.80;;;;;;5018115;28;20036;-77
2021/04/05 12:12:35;;;;;;;2.70;1.30;;;2.90;92.80;;;;;;5045179;28;20030;-77
2021/04/05 12:15:01;;;;;;;2.70;1.00;;;3.00;93.20;;;;;;5029934;28;20049;-77
2021/04/05 12:17:27;;;;;;;7.82;0.80;;;3.20;93.40;;;;;;5031597;28;20071;-76
2021/04/05 12:19:53;;;;;;;6.57;1.20;;;3.30;93.30;;;;;;5016086;28;20047;-76
2021/04/05 12:22:28;;;;;;;4.32;0.95;;;3.30;93.60;;;;;;5017970;28;20580;-77
2021/04/05 12:24:55;;;;;;;9.30;1.10;;;3.50;93.60;;;;;;5028967;28;20626;-76
2021/04/05 12:27:26;;;;;;;7.10;1.42;;;3.60;93.40;;;;;;5045590;28;20080;-76
2021/04/05 12:29:53;;;;;;;5.45;1.30;;;3.60;93.30;;;;;;5024548;28;20554;-76
2021/04/05 12:32:19;;;;;;;5.97;1.38;;;4.00;93.90;;;;;;5027953;28;20033;-76
2021/04/05 12:34:45;;;;;;;5.18;1.17;;;4.30;93.70;;;;;;5023713;28;20043;-77
2021/04/05 12:37:15;;;;;;;7.40;1.45;;;4.40;93.80;;;;;;5009843;28;20094;-77
2021/04/05 12:39:41;;;;;;;7.50;1.02;;;4.70;94.00;;;;;;5008182;28;20071;-77
2021/04/05 12:42:08;;;;;;;8.70;2.03;;;4.70;93.90;;;;;;5022999;28;20041;-76
2021/04/05 12:44:34;;;;;;;5.65;1.13;;;4.80;93.60;;;;;;5035205;28;20059;-77
2021/04/05 12:47:02;;;;;;;6.43;0.75;;;4.40;93.10;;;;;;5045298;28;20056;-76
2021/04/05 12:49:34;;;;;;;3.10;0.93;;;4.20;93.00;;;;;;5028323;28;20045;-77
2021/04/05 12:52:02;;;;;;;3.50;0.98;;;4.10;92.40;;;;;;5033652;28;20029;-77
2021/04/05 12:54:29;;;;;;;6.53;1.20;;;4.00;92.40;;;;;;5036561;28;20033;-77
2021/04/05 12:56:57;;;;;;;4.85;0.70;;;4.00;91.90;;;;;;5005833;28;20436;-76
2021/04/05 12:59:23;;;;;;;8.38;0.98;;;4.10;92.60;;;;;;5016838;28;20037;-77
2021/04/05 13:01:53;;;;;;;4.30;0.77;;;4.40;92.20;;;;;;5003733;28;20041;-76
2021/04/05 13:04:22;;;;;;;2.47;0.70;;;4.70;92.00;;;;;;5043039;28;20033;-76
2021/04/05 13:07:04;;;;;;;4.03;0.95;;;4.80;92.80;;;;;;5014380;28;20630;-76
2021/04/05 13:09:40;;;;;;;2.33;1.17;;;5.20;91.80;;;;;;5048832;28;20028;-76
2021/04/05 13:12:29;;;;;;;8.07;1.48;;;5.00;91.60;;;;;;5019578;28;20025;-76
2021/04/05 13:15:04;;;;;;;4.93;1.13;;;5.50;90.80;;;;;;5045982;28;20048;-76
2021/04/05 13:17:38;;;;;;;2.92;0.75;;;5.60;90.20;;;;;;5049302;28;20044;-76